Hillsview, South Dakota
Current Conditions -  °F | °C
As of 1:52 PM on Thursday 30 Oct 2014 (Local Time) from KMBG Reporting Station
Broken Clouds Broken Clouds  
Wind Chill: 35°   Ceiling: 1900
Heat Index: 43°   Visibility: 10mi
Dew Point: 32°   Wind: 16mph
Humidity: 65%   Direction: 360°N
Pressure: 30.34"   Gusts: NA
Location:  45.7737°N, 99.5895°W
Report Text: KMBG 301852Z AUTO 36014KT 10SM BKN019 06/00 A3034 RMK AO2 SLP287 T00610000
Loading
Personal Weather Stations






























Interactive Weather Map
Tropical Storm Tracking
New forecast layout! Learn more

10-Day Weather Forecast

Advertisements
Track Severe Weather on mobile